sensor_id;sensor_type;location;lat;lon;timestamp;P1;durP1;ratioP1;P2;durP2;ratioP2
26946;SDS011;14501;52.282;10.560;2023-02-17T00:00:20;38.72;;;21.92;;
26946;SDS011;14501;52.282;10.560;2023-02-17T00:02:46;38.33;;;21.20;;
26946;SDS011;14501;52.282;10.560;2023-02-17T00:05:11;37.13;;;20.80;;
26946;SDS011;14501;52.282;10.560;2023-02-17T00:07:37;39.53;;;20.60;;
26946;SDS011;14501;52.282;10.560;2023-02-17T00:10:03;36.72;;;20.48;;
26946;SDS011;14501;52.282;10.560;2023-02-17T00:12:29;37.72;;;21.45;;
26946;SDS011;14501;52.282;10.560;2023-02-17T00:14:55;36.97;;;20.25;;
26946;SDS011;14501;52.282;10.560;2023-02-17T00:17:21;36.67;;;20.73;;
26946;SDS011;14501;52.282;10.560;2023-02-17T00:19:46;35.15;;;19.95;;
26946;SDS011;14501;52.282;10.560;2023-02-17T00:22:12;38.42;;;20.45;;
26946;SDS011;14501;52.282;10.560;2023-02-17T00:24:38;35.05;;;21.08;;
26946;SDS011;14501;52.282;10.560;2023-02-17T00:27:05;34.60;;;20.38;;
26946;SDS011;14501;52.282;10.560;2023-02-17T00:29:31;36.78;;;20.00;;
26946;SDS011;14501;52.282;10.560;2023-02-17T00:31:57;33.58;;;19.63;;
26946;SDS011;14501;52.282;10.560;2023-02-17T00:34:23;36.20;;;19.98;;
26946;SDS011;14501;52.282;10.560;2023-02-17T00:36:49;33.30;;;18.90;;
26946;SDS011;14501;52.282;10.560;2023-02-17T00:39:15;32.40;;;18.75;;
26946;SDS011;14501;52.282;10.560;2023-02-17T00:41:41;34.63;;;19.38;;
26946;SDS011;14501;52.282;10.560;2023-02-17T00:44:11;32.60;;;18.85;;
26946;SDS011;14501;52.282;10.560;2023-02-17T00:46:44;31.92;;;19.55;;
26946;SDS011;14501;52.282;10.560;2023-02-17T00:49:17;35.33;;;19.00;;
26946;SDS011;14501;52.282;10.560;2023-02-17T00:51:46;33.72;;;19.65;;
26946;SDS011;14501;52.282;10.560;2023-02-17T00:54:12;32.63;;;18.90;;
26946;SDS011;14501;52.282;10.560;2023-02-17T00:56:38;34.47;;;18.88;;
26946;SDS011;14501;52.282;10.560;2023-02-17T00:59:04;35.40;;;18.98;;
26946;SDS011;14501;52.282;10.560;2023-02-17T01:01:30;32.63;;;18.42;;
26946;SDS011;14501;52.282;10.560;2023-02-17T01:03:56;33.40;;;18.95;;
26946;SDS011;14501;52.282;10.560;2023-02-17T01:06:23;33.35;;;18.95;;
26946;SDS011;14501;52.282;10.560;2023-02-17T01:08:58;35.85;;;18.65;;
26946;SDS011;14501;52.282;10.560;2023-02-17T01:11:28;35.53;;;18.05;;
26946;SDS011;14501;52.282;10.560;2023-02-17T01:13:55;34.78;;;18.90;;
26946;SDS011;14501;52.282;10.560;2023-02-17T01:16:28;31.85;;;17.77;;
26946;SDS011;14501;52.282;10.560;2023-02-17T01:18:59;32.97;;;18.65;;
26946;SDS011;14501;52.282;10.560;2023-02-17T01:21:33;30.10;;;18.45;;
26946;SDS011;14501;52.282;10.560;2023-02-17T01:24:00;29.88;;;18.33;;
26946;SDS011;14501;52.282;10.560;2023-02-17T01:26:29;30.63;;;18.15;;
26946;SDS011;14501;52.282;10.560;2023-02-17T01:28:56;36.67;;;18.88;;
26946;SDS011;14501;52.282;10.560;2023-02-17T01:31:22;31.50;;;18.60;;
26946;SDS011;14501;52.282;10.560;2023-02-17T01:33:48;33.55;;;18.20;;
26946;SDS011;14501;52.282;10.560;2023-02-17T01:36:16;31.15;;;19.10;;
26946;SDS011;14501;52.282;10.560;2023-02-17T01:38:42;28.00;;;16.50;;
26946;SDS011;14501;52.282;10.560;2023-02-17T01:41:10;31.67;;;17.50;;
26946;SDS011;14501;52.282;10.560;2023-02-17T01:43:37;30.50;;;17.38;;
26946;SDS011;14501;52.282;10.560;2023-02-17T01:46:04;30.88;;;17.42;;
26946;SDS011;14501;52.282;10.560;2023-02-17T01:51:06;29.30;;;17.50;;
26946;SDS011;14501;52.282;10.560;2023-02-17T01:53:43;33.53;;;17.42;;
26946;SDS011;14501;52.282;10.560;2023-02-17T01:56:14;26.70;;;15.95;;
26946;SDS011;14501;52.282;10.560;2023-02-17T01:58:43;28.13;;;16.50;;
26946;SDS011;14501;52.282;10.560;2023-02-17T02:01:14;26.45;;;16.55;;
26946;SDS011;14501;52.282;10.560;2023-02-17T02:03:40;26.40;;;15.95;;
26946;SDS011;14501;52.282;10.560;2023-02-17T02:06:08;30.27;;;17.55;;
26946;SDS011;14501;52.282;10.560;2023-02-17T02:08:42;32.28;;;16.50;;
26946;SDS011;14501;52.282;10.560;2023-02-17T02:11:16;29.45;;;16.95;;
26946;SDS011;14501;52.282;10.560;2023-02-17T02:13:41;28.13;;;16.42;;
26946;SDS011;14501;52.282;10.560;2023-02-17T02:24:52;27.98;;;16.60;;
26946;SDS011;14501;52.282;10.560;2023-02-17T02:32:48;28.45;;;16.85;;
26946;SDS011;14501;52.282;10.560;2023-02-17T02:38:08;29.08;;;16.85;;
26946;SDS011;14501;52.282;10.560;2023-02-17T02:41:00;31.52;;;17.52;;
26946;SDS011;14501;52.282;10.560;2023-02-17T02:43:30;30.63;;;17.48;;
26946;SDS011;14501;52.282;10.560;2023-02-17T02:45:57;27.58;;;16.70;;
26946;SDS011;14501;52.282;10.560;2023-02-17T02:48:22;26.63;;;15.85;;
26946;SDS011;14501;52.282;10.560;2023-02-17T02:50:56;30.73;;;17.77;;
26946;SDS011;14501;52.282;10.560;2023-02-17T02:53:44;32.78;;;16.90;;
26946;SDS011;14501;52.282;10.560;2023-02-17T02:59:27;29.07;;;17.33;;
26946;SDS011;14501;52.282;10.560;2023-02-17T03:10:32;28.35;;;17.50;;
26946;SDS011;14501;52.282;10.560;2023-02-17T03:13:00;25.58;;;16.27;;
26946;SDS011;14501;52.282;10.560;2023-02-17T03:15:28;27.05;;;16.73;;
26946;SDS011;14501;52.282;10.560;2023-02-17T03:17:57;26.90;;;15.50;;
26946;SDS011;14501;52.282;10.560;2023-02-17T03:20:24;27.38;;;16.05;;
26946;SDS011;14501;52.282;10.560;2023-02-17T03:22:53;27.17;;;17.02;;
26946;SDS011;14501;52.282;10.560;2023-02-17T03:25:20;29.98;;;16.30;;
26946;SDS011;14501;52.282;10.560;2023-02-17T03:27:45;28.70;;;16.90;;
26946;SDS011;14501;52.282;10.560;2023-02-17T03:30:11;27.60;;;17.30;;
26946;SDS011;14501;52.282;10.560;2023-02-17T03:32:37;27.85;;;16.17;;
26946;SDS011;14501;52.282;10.560;2023-02-17T03:35:03;24.10;;;15.80;;
26946;SDS011;14501;52.282;10.560;2023-02-17T03:37:29;24.15;;;16.00;;
26946;SDS011;14501;52.282;10.560;2023-02-17T03:39:55;26.67;;;16.67;;
26946;SDS011;14501;52.282;10.560;2023-02-17T03:42:20;25.02;;;15.40;;
26946;SDS011;14501;52.282;10.560;2023-02-17T03:44:46;26.40;;;16.52;;
26946;SDS011;14501;52.282;10.560;2023-02-17T03:47:12;25.63;;;15.93;;
26946;SDS011;14501;52.282;10.560;2023-02-17T03:49:38;26.73;;;16.25;;
26946;SDS011;14501;52.282;10.560;2023-02-17T03:52:03;25.67;;;16.27;;
26946;SDS011;14501;52.282;10.560;2023-02-17T03:54:29;23.65;;;15.98;;
26946;SDS011;14501;52.282;10.560;2023-02-17T03:56:54;26.60;;;14.85;;
26946;SDS011;14501;52.282;10.560;2023-02-17T03:59:20;25.35;;;16.33;;
26946;SDS011;14501;52.282;10.560;2023-02-17T04:01:46;24.80;;;15.38;;
26946;SDS011;14501;52.282;10.560;2023-02-17T04:04:11;25.98;;;14.63;;
26946;SDS011;14501;52.282;10.560;2023-02-17T04:06:37;25.75;;;16.23;;
26946;SDS011;14501;52.282;10.560;2023-02-17T04:09:03;24.23;;;16.08;;
26946;SDS011;14501;52.282;10.560;2023-02-17T04:11:28;20.38;;;13.95;;
26946;SDS011;14501;52.282;10.560;2023-02-17T04:13:54;23.45;;;15.02;;
26946;SDS011;14501;52.282;10.560;2023-02-17T04:16:19;22.58;;;14.60;;
26946;SDS011;14501;52.282;10.560;2023-02-17T04:18:45;22.40;;;14.00;;
26946;SDS011;14501;52.282;10.560;2023-02-17T04:21:11;23.55;;;15.63;;
26946;SDS011;14501;52.282;10.560;2023-02-17T04:23:37;22.45;;;14.88;;
26946;SDS011;14501;52.282;10.560;2023-02-17T04:26:03;22.38;;;14.75;;
26946;SDS011;14501;52.282;10.560;2023-02-17T04:28:30;29.63;;;14.82;;
26946;SDS011;14501;52.282;10.560;2023-02-17T04:30:56;20.10;;;13.57;;
26946;SDS011;14501;52.282;10.560;2023-02-17T04:33:23;21.88;;;14.68;;
26946;SDS011;14501;52.282;10.560;2023-02-17T04:35:49;23.15;;;14.75;;
26946;SDS011;14501;52.282;10.560;2023-02-17T04:38:14;21.83;;;14.48;;
26946;SDS011;14501;52.282;10.560;2023-02-17T04:40:40;23.73;;;15.65;;
26946;SDS011;14501;52.282;10.560;2023-02-17T04:43:07;20.38;;;14.70;;
26946;SDS011;14501;52.282;10.560;2023-02-17T04:45:36;24.42;;;14.80;;
26946;SDS011;14501;52.282;10.560;2023-02-17T04:48:02;22.65;;;14.82;;
26946;SDS011;14501;52.282;10.560;2023-02-17T04:50:28;24.88;;;14.93;;
26946;SDS011;14501;52.282;10.560;2023-02-17T04:52:53;21.30;;;14.30;;
26946;SDS011;14501;52.282;10.560;2023-02-17T04:55:19;22.38;;;14.85;;
26946;SDS011;14501;52.282;10.560;2023-02-17T04:57:45;21.63;;;15.35;;
26946;SDS011;14501;52.282;10.560;2023-02-17T05:00:11;26.02;;;15.50;;
26946;SDS011;14501;52.282;10.560;2023-02-17T05:02:37;25.25;;;15.25;;
26946;SDS011;14501;52.282;10.560;2023-02-17T05:05:02;23.30;;;14.85;;
26946;SDS011;14501;52.282;10.560;2023-02-17T05:07:28;27.83;;;14.95;;
26946;SDS011;14501;52.282;10.560;2023-02-17T05:09:54;24.15;;;15.07;;
26946;SDS011;14501;52.282;10.560;2023-02-17T05:12:19;22.60;;;14.45;;
26946;SDS011;14501;52.282;10.560;2023-02-17T05:14:45;21.52;;;14.35;;
26946;SDS011;14501;52.282;10.560;2023-02-17T05:17:10;21.60;;;14.40;;
26946;SDS011;14501;52.282;10.560;2023-02-17T05:19:36;24.00;;;14.82;;
26946;SDS011;14501;52.282;10.560;2023-02-17T05:22:02;23.65;;;15.15;;
26946;SDS011;14501;52.282;10.560;2023-02-17T05:24:27;25.63;;;17.17;;
26946;SDS011;14501;52.282;10.560;2023-02-17T05:26:53;24.63;;;16.00;;
26946;SDS011;14501;52.282;10.560;2023-02-17T05:29:19;26.33;;;16.15;;
26946;SDS011;14501;52.282;10.560;2023-02-17T05:31:44;24.90;;;16.50;;
26946;SDS011;14501;52.282;10.560;2023-02-17T05:34:11;27.75;;;17.20;;
26946;SDS011;14501;52.282;10.560;2023-02-17T05:36:36;25.63;;;16.83;;
26946;SDS011;14501;52.282;10.560;2023-02-17T05:39:03;24.88;;;17.33;;
26946;SDS011;14501;52.282;10.560;2023-02-17T05:41:28;28.20;;;16.88;;
26946;SDS011;14501;52.282;10.560;2023-02-17T05:43:54;35.67;;;18.85;;
26946;SDS011;14501;52.282;10.560;2023-02-17T05:46:20;28.25;;;17.33;;
26946;SDS011;14501;52.282;10.560;2023-02-17T05:48:47;29.25;;;17.45;;
26946;SDS011;14501;52.282;10.560;2023-02-17T05:51:12;28.63;;;17.83;;
26946;SDS011;14501;52.282;10.560;2023-02-17T05:53:41;27.42;;;16.48;;
26946;SDS011;14501;52.282;10.560;2023-02-17T05:56:07;29.85;;;18.15;;
26946;SDS011;14501;52.282;10.560;2023-02-17T05:58:33;29.67;;;17.88;;
26946;SDS011;14501;52.282;10.560;2023-02-17T06:00:58;26.65;;;16.92;;
26946;SDS011;14501;52.282;10.560;2023-02-17T06:03:24;25.38;;;16.70;;
26946;SDS011;14501;52.282;10.560;2023-02-17T06:05:49;29.83;;;17.70;;
26946;SDS011;14501;52.282;10.560;2023-02-17T06:08:15;25.88;;;16.50;;
26946;SDS011;14501;52.282;10.560;2023-02-17T06:10:41;24.17;;;16.15;;
26946;SDS011;14501;52.282;10.560;2023-02-17T06:13:06;25.63;;;16.02;;
26946;SDS011;14501;52.282;10.560;2023-02-17T06:15:32;26.67;;;16.17;;
26946;SDS011;14501;52.282;10.560;2023-02-17T06:17:58;27.15;;;16.92;;
26946;SDS011;14501;52.282;10.560;2023-02-17T06:20:24;27.38;;;16.98;;
26946;SDS011;14501;52.282;10.560;2023-02-17T06:22:49;24.92;;;15.25;;
26946;SDS011;14501;52.282;10.560;2023-02-17T06:25:15;25.38;;;15.43;;
26946;SDS011;14501;52.282;10.560;2023-02-17T06:27:47;25.65;;;16.15;;
26946;SDS011;14501;52.282;10.560;2023-02-17T06:30:13;26.58;;;15.13;;
26946;SDS011;14501;52.282;10.560;2023-02-17T06:32:39;22.10;;;15.25;;
26946;SDS011;14501;52.282;10.560;2023-02-17T06:35:04;24.42;;;14.35;;
26946;SDS011;14501;52.282;10.560;2023-02-17T06:37:30;22.30;;;14.63;;
26946;SDS011;14501;52.282;10.560;2023-02-17T06:39:56;23.35;;;14.88;;
26946;SDS011;14501;52.282;10.560;2023-02-17T06:42:22;19.92;;;14.65;;
26946;SDS011;14501;52.282;10.560;2023-02-17T06:44:49;21.48;;;13.95;;
26946;SDS011;14501;52.282;10.560;2023-02-17T06:47:14;23.75;;;15.18;;
26946;SDS011;14501;52.282;10.560;2023-02-17T06:49:40;19.90;;;13.90;;
26946;SDS011;14501;52.282;10.560;2023-02-17T06:52:06;24.70;;;15.57;;
26946;SDS011;14501;52.282;10.560;2023-02-17T06:54:32;21.33;;;14.50;;
26946;SDS011;14501;52.282;10.560;2023-02-17T06:56:57;20.52;;;14.18;;
26946;SDS011;14501;52.282;10.560;2023-02-17T06:59:23;21.20;;;14.32;;
26946;SDS011;14501;52.282;10.560;2023-02-17T07:01:49;21.38;;;14.63;;
26946;SDS011;14501;52.282;10.560;2023-02-17T07:04:15;20.10;;;13.43;;
26946;SDS011;14501;52.282;10.560;2023-02-17T07:06:41;20.10;;;13.68;;
26946;SDS011;14501;52.282;10.560;2023-02-17T07:09:09;19.42;;;13.25;;
26946;SDS011;14501;52.282;10.560;2023-02-17T07:11:37;18.10;;;13.32;;
26946;SDS011;14501;52.282;10.560;2023-02-17T07:14:03;19.25;;;13.45;;
26946;SDS011;14501;52.282;10.560;2023-02-17T07:16:29;20.05;;;13.05;;
26946;SDS011;14501;52.282;10.560;2023-02-17T07:18:55;17.27;;;11.82;;
26946;SDS011;14501;52.282;10.560;2023-02-17T07:21:21;24.90;;;13.63;;
26946;SDS011;14501;52.282;10.560;2023-02-17T07:23:46;18.73;;;12.73;;
26946;SDS011;14501;52.282;10.560;2023-02-17T07:26:12;17.48;;;11.90;;
26946;SDS011;14501;52.282;10.560;2023-02-17T07:28:38;18.60;;;12.98;;
26946;SDS011;14501;52.282;10.560;2023-02-17T07:31:05;18.27;;;12.32;;
26946;SDS011;14501;52.282;10.560;2023-02-17T07:33:32;17.27;;;12.23;;
26946;SDS011;14501;52.282;10.560;2023-02-17T07:35:58;16.45;;;11.75;;
26946;SDS011;14501;52.282;10.560;2023-02-17T07:38:26;21.52;;;13.70;;
26946;SDS011;14501;52.282;10.560;2023-02-17T08:01:45;16.30;;;11.85;;
26946;SDS011;14501;52.282;10.560;2023-02-17T08:04:11;20.25;;;13.18;;
26946;SDS011;14501;52.282;10.560;2023-02-17T08:06:37;18.52;;;12.82;;
26946;SDS011;14501;52.282;10.560;2023-02-17T08:09:04;18.02;;;11.88;;
26946;SDS011;14501;52.282;10.560;2023-02-17T08:11:48;18.27;;;11.85;;
26946;SDS011;14501;52.282;10.560;2023-02-17T08:14:32;17.25;;;12.10;;
26946;SDS011;14501;52.282;10.560;2023-02-17T08:16:58;18.13;;;11.55;;
26946;SDS011;14501;52.282;10.560;2023-02-17T08:19:24;17.40;;;11.93;;
26946;SDS011;14501;52.282;10.560;2023-02-17T08:21:51;16.08;;;11.23;;
26946;SDS011;14501;52.282;10.560;2023-02-17T08:24:17;15.32;;;10.40;;
26946;SDS011;14501;52.282;10.560;2023-02-17T08:26:46;13.77;;;9.35;;
26946;SDS011;14501;52.282;10.560;2023-02-17T08:29:12;14.57;;;10.05;;
26946;SDS011;14501;52.282;10.560;2023-02-17T08:31:39;11.68;;;8.90;;
26946;SDS011;14501;52.282;10.560;2023-02-17T08:34:06;12.52;;;9.63;;
26946;SDS011;14501;52.282;10.560;2023-02-17T08:36:33;14.23;;;10.18;;
26946;SDS011;14501;52.282;10.560;2023-02-17T08:39:01;10.52;;;8.25;;
26946;SDS011;14501;52.282;10.560;2023-02-17T08:41:32;15.32;;;9.27;;
26946;SDS011;14501;52.282;10.560;2023-02-17T08:44:01;10.18;;;8.00;;
26946;SDS011;14501;52.282;10.560;2023-02-17T08:46:30;13.77;;;8.65;;
26946;SDS011;14501;52.282;10.560;2023-02-17T08:48:56;12.60;;;8.43;;
26946;SDS011;14501;52.282;10.560;2023-02-17T08:51:23;10.93;;;8.00;;
26946;SDS011;14501;52.282;10.560;2023-02-17T08:53:51;11.38;;;7.90;;
26946;SDS011;14501;52.282;10.560;2023-02-17T08:56:19;9.20;;;7.53;;
26946;SDS011;14501;52.282;10.560;2023-02-17T08:58:45;10.80;;;7.80;;
26946;SDS011;14501;52.282;10.560;2023-02-17T09:01:11;9.48;;;7.20;;
26946;SDS011;14501;52.282;10.560;2023-02-17T09:03:37;9.32;;;7.57;;
26946;SDS011;14501;52.282;10.560;2023-02-17T09:06:03;8.77;;;7.70;;
26946;SDS011;14501;52.282;10.560;2023-02-17T09:08:29;11.82;;;8.43;;
26946;SDS011;14501;52.282;10.560;2023-02-17T09:10:55;8.80;;;7.50;;
26946;SDS011;14501;52.282;10.560;2023-02-17T09:13:21;10.32;;;7.85;;
26946;SDS011;14501;52.282;10.560;2023-02-17T09:15:46;8.80;;;7.30;;
26946;SDS011;14501;52.282;10.560;2023-02-17T09:18:13;9.32;;;7.72;;
26946;SDS011;14501;52.282;10.560;2023-02-17T09:20:39;8.55;;;7.47;;
26946;SDS011;14501;52.282;10.560;2023-02-17T09:23:05;10.57;;;7.68;;
26946;SDS011;14501;52.282;10.560;2023-02-17T09:25:31;9.00;;;7.60;;
26946;SDS011;14501;52.282;10.560;2023-02-17T09:27:57;11.77;;;8.57;;
26946;SDS011;14501;52.282;10.560;2023-02-17T09:30:23;11.45;;;7.65;;
26946;SDS011;14501;52.282;10.560;2023-02-17T09:32:49;12.23;;;8.13;;
26946;SDS011;14501;52.282;10.560;2023-02-17T09:35:14;14.25;;;8.18;;
26946;SDS011;14501;52.282;10.560;2023-02-17T09:37:41;9.68;;;7.55;;
26946;SDS011;14501;52.282;10.560;2023-02-17T09:40:08;10.77;;;8.35;;
26946;SDS011;14501;52.282;10.560;2023-02-17T09:42:42;11.38;;;7.80;;
26946;SDS011;14501;52.282;10.560;2023-02-17T09:45:13;12.38;;;7.45;;
26946;SDS011;14501;52.282;10.560;2023-02-17T09:47:47;11.02;;;8.20;;
26946;SDS011;14501;52.282;10.560;2023-02-17T09:56:03;10.25;;;7.40;;
26946;SDS011;14501;52.282;10.560;2023-02-17T09:58:36;10.10;;;7.72;;
26946;SDS011;14501;52.282;10.560;2023-02-17T10:01:06;10.45;;;7.43;;
26946;SDS011;14501;52.282;10.560;2023-02-17T10:09:10;10.80;;;7.30;;
26946;SDS011;14501;52.282;10.560;2023-02-17T10:11:44;9.30;;;7.88;;
26946;SDS011;14501;52.282;10.560;2023-02-17T10:14:39;9.27;;;7.40;;
26946;SDS011;14501;52.282;10.560;2023-02-17T10:20:12;9.38;;;6.57;;
26946;SDS011;14501;52.282;10.560;2023-02-17T10:22:38;8.40;;;6.82;;
26946;SDS011;14501;52.282;10.560;2023-02-17T10:25:13;10.10;;;7.15;;
26946;SDS011;14501;52.282;10.560;2023-02-17T10:27:42;7.90;;;6.53;;
26946;SDS011;14501;52.282;10.560;2023-02-17T10:30:18;9.00;;;6.78;;
26946;SDS011;14501;52.282;10.560;2023-02-17T10:41:03;10.68;;;6.28;;
26946;SDS011;14501;52.282;10.560;2023-02-17T10:43:33;9.05;;;6.63;;
26946;SDS011;14501;52.282;10.560;2023-02-17T10:45:59;8.52;;;6.80;;
26946;SDS011;14501;52.282;10.560;2023-02-17T10:48:33;9.50;;;7.38;;
26946;SDS011;14501;52.282;10.560;2023-02-17T10:51:06;8.48;;;6.43;;
26946;SDS011;14501;52.282;10.560;2023-02-17T10:53:37;8.30;;;6.55;;
26946;SDS011;14501;52.282;10.560;2023-02-17T11:01:10;7.88;;;6.60;;
26946;SDS011;14501;52.282;10.560;2023-02-17T11:03:37;8.45;;;7.15;;
26946;SDS011;14501;52.282;10.560;2023-02-17T11:06:17;8.82;;;6.97;;
26946;SDS011;14501;52.282;10.560;2023-02-17T11:11:20;12.30;;;8.02;;
26946;SDS011;14501;52.282;10.560;2023-02-17T11:18:57;11.00;;;7.28;;
26946;SDS011;14501;52.282;10.560;2023-02-17T11:21:26;9.75;;;7.10;;
26946;SDS011;14501;52.282;10.560;2023-02-17T11:23:54;9.65;;;7.18;;
26946;SDS011;14501;52.282;10.560;2023-02-17T11:26:29;8.30;;;6.85;;
26946;SDS011;14501;52.282;10.560;2023-02-17T11:29:06;9.77;;;6.97;;
26946;SDS011;14501;52.282;10.560;2023-02-17T11:31:40;11.07;;;6.50;;
26946;SDS011;14501;52.282;10.560;2023-02-17T11:34:10;9.52;;;7.05;;
26946;SDS011;14501;52.282;10.560;2023-02-17T11:36:42;9.15;;;6.47;;
26946;SDS011;14501;52.282;10.560;2023-02-17T11:39:17;10.73;;;7.72;;
26946;SDS011;14501;52.282;10.560;2023-02-17T11:41:44;9.75;;;7.40;;
26946;SDS011;14501;52.282;10.560;2023-02-17T11:44:09;8.57;;;6.95;;
26946;SDS011;14501;52.282;10.560;2023-02-17T11:46:43;8.10;;;6.85;;
26946;SDS011;14501;52.282;10.560;2023-02-17T11:52:24;9.05;;;6.13;;
26946;SDS011;14501;52.282;10.560;2023-02-17T11:55:12;11.02;;;6.65;;
26946;SDS011;14501;52.282;10.560;2023-02-17T11:57:41;8.20;;;6.20;;
26946;SDS011;14501;52.282;10.560;2023-02-17T12:02:47;9.27;;;6.32;;
26946;SDS011;14501;52.282;10.560;2023-02-17T12:26:44;8.77;;;6.07;;
26946;SDS011;14501;52.282;10.560;2023-02-17T12:29:27;6.60;;;5.72;;
26946;SDS011;14501;52.282;10.560;2023-02-17T12:34:49;7.70;;;5.57;;
26946;SDS011;14501;52.282;10.560;2023-02-17T12:37:22;7.95;;;6.13;;
26946;SDS011;14501;52.282;10.560;2023-02-17T12:40:06;8.57;;;5.07;;
26946;SDS011;14501;52.282;10.560;2023-02-17T12:46:04;7.15;;;5.82;;
26946;SDS011;14501;52.282;10.560;2023-02-17T12:56:50;7.53;;;5.75;;
26946;SDS011;14501;52.282;10.560;2023-02-17T12:59:33;7.30;;;6.35;;
26946;SDS011;14501;52.282;10.560;2023-02-17T13:02:17;9.15;;;6.60;;
26946;SDS011;14501;52.282;10.560;2023-02-17T13:04:57;9.23;;;6.00;;
26946;SDS011;14501;52.282;10.560;2023-02-17T13:07:38;8.60;;;6.82;;
26946;SDS011;14501;52.282;10.560;2023-02-17T13:10:17;9.45;;;7.35;;
26946;SDS011;14501;52.282;10.560;2023-02-17T13:12:57;10.38;;;7.95;;
26946;SDS011;14501;52.282;10.560;2023-02-17T13:17:58;8.95;;;7.40;;
26946;SDS011;14501;52.282;10.560;2023-02-17T13:20:36;10.77;;;7.80;;
26946;SDS011;14501;52.282;10.560;2023-02-17T13:23:07;9.38;;;8.23;;
26946;SDS011;14501;52.282;10.560;2023-02-17T13:25:35;11.40;;;8.55;;
26946;SDS011;14501;52.282;10.560;2023-02-17T13:28:02;11.82;;;8.65;;
26946;SDS011;14501;52.282;10.560;2023-02-17T13:30:42;10.00;;;8.55;;
26946;SDS011;14501;52.282;10.560;2023-02-17T13:35:44;10.88;;;7.97;;
26946;SDS011;14501;52.282;10.560;2023-02-17T13:38:10;11.38;;;8.52;;
26946;SDS011;14501;52.282;10.560;2023-02-17T13:40:39;12.93;;;8.95;;
26946;SDS011;14501;52.282;10.560;2023-02-17T13:43:16;12.55;;;9.88;;
26946;SDS011;14501;52.282;10.560;2023-02-17T13:45:44;13.20;;;10.73;;
26946;SDS011;14501;52.282;10.560;2023-02-17T13:50:46;14.50;;;10.93;;
26946;SDS011;14501;52.282;10.560;2023-02-17T13:53:26;15.73;;;11.18;;
26946;SDS011;14501;52.282;10.560;2023-02-17T13:58:29;17.88;;;13.32;;
26946;SDS011;14501;52.282;10.560;2023-02-17T14:00:57;18.05;;;14.30;;
26946;SDS011;14501;52.282;10.560;2023-02-17T14:05:50;18.60;;;14.13;;
26946;SDS011;14501;52.282;10.560;2023-02-17T14:11:04;18.20;;;14.48;;
26946;SDS011;14501;52.282;10.560;2023-02-17T14:13:33;20.60;;;15.07;;
26946;SDS011;14501;52.282;10.560;2023-02-17T14:16:00;20.10;;;15.13;;
26946;SDS011;14501;52.282;10.560;2023-02-17T14:18:28;20.38;;;15.63;;
26946;SDS011;14501;52.282;10.560;2023-02-17T14:20:58;20.08;;;14.40;;
26946;SDS011;14501;52.282;10.560;2023-02-17T14:23:41;19.85;;;15.00;;
26946;SDS011;14501;52.282;10.560;2023-02-17T14:26:14;20.05;;;14.65;;
26946;SDS011;14501;52.282;10.560;2023-02-17T14:28:51;19.02;;;14.05;;
26946;SDS011;14501;52.282;10.560;2023-02-17T14:31:21;17.30;;;12.40;;
26946;SDS011;14501;52.282;10.560;2023-02-17T14:36:40;14.88;;;11.02;;
26946;SDS011;14501;52.282;10.560;2023-02-17T14:39:06;15.02;;;10.93;;
26946;SDS011;14501;52.282;10.560;2023-02-17T14:41:37;12.85;;;10.02;;
26946;SDS011;14501;52.282;10.560;2023-02-17T14:44:03;13.77;;;10.40;;
26946;SDS011;14501;52.282;10.560;2023-02-17T14:46:30;16.35;;;11.75;;
26946;SDS011;14501;52.282;10.560;2023-02-17T14:48:56;17.70;;;10.57;;
26946;SDS011;14501;52.282;10.560;2023-02-17T14:51:22;14.32;;;11.18;;
26946;SDS011;14501;52.282;10.560;2023-02-17T14:53:49;16.02;;;10.60;;
26946;SDS011;14501;52.282;10.560;2023-02-17T14:58:53;14.38;;;10.55;;
26946;SDS011;14501;52.282;10.560;2023-02-17T15:01:21;14.77;;;10.73;;
26946;SDS011;14501;52.282;10.560;2023-02-17T15:03:48;13.70;;;10.73;;
26946;SDS011;14501;52.282;10.560;2023-02-17T15:06:15;13.50;;;10.32;;
26946;SDS011;14501;52.282;10.560;2023-02-17T15:08:41;15.55;;;10.85;;
26946;SDS011;14501;52.282;10.560;2023-02-17T15:11:28;14.20;;;10.38;;
26946;SDS011;14501;52.282;10.560;2023-02-17T15:13:56;13.48;;;9.27;;
26946;SDS011;14501;52.282;10.560;2023-02-17T15:16:22;13.15;;;9.63;;
26946;SDS011;14501;52.282;10.560;2023-02-17T15:18:47;11.98;;;8.60;;
26946;SDS011;14501;52.282;10.560;2023-02-17T15:21:24;16.48;;;9.25;;
26946;SDS011;14501;52.282;10.560;2023-02-17T15:23:52;13.40;;;9.05;;
26946;SDS011;14501;52.282;10.560;2023-02-17T15:26:19;12.85;;;8.43;;
26946;SDS011;14501;52.282;10.560;2023-02-17T15:28:46;11.65;;;8.20;;
26946;SDS011;14501;52.282;10.560;2023-02-17T15:31:12;9.88;;;7.25;;
26946;SDS011;14501;52.282;10.560;2023-02-17T15:33:44;10.07;;;6.85;;
26946;SDS011;14501;52.282;10.560;2023-02-17T15:36:12;11.48;;;7.30;;
26946;SDS011;14501;52.282;10.560;2023-02-17T15:38:40;8.80;;;6.53;;
26946;SDS011;14501;52.282;10.560;2023-02-17T15:41:13;10.10;;;6.20;;
26946;SDS011;14501;52.282;10.560;2023-02-17T15:43:44;8.35;;;5.97;;
26946;SDS011;14501;52.282;10.560;2023-02-17T15:46:13;9.82;;;6.10;;
26946;SDS011;14501;52.282;10.560;2023-02-17T15:48:40;9.57;;;6.35;;
26946;SDS011;14501;52.282;10.560;2023-02-17T15:51:11;8.88;;;6.32;;
26946;SDS011;14501;52.282;10.560;2023-02-17T15:53:38;10.15;;;6.20;;
26946;SDS011;14501;52.282;10.560;2023-02-17T15:56:15;10.88;;;6.07;;
26946;SDS011;14501;52.282;10.560;2023-02-17T15:58:43;8.48;;;5.50;;
26946;SDS011;14501;52.282;10.560;2023-02-17T16:03:51;8.95;;;6.30;;
26946;SDS011;14501;52.282;10.560;2023-02-17T16:06:17;10.55;;;5.25;;
26946;SDS011;14501;52.282;10.560;2023-02-17T16:08:43;7.22;;;4.82;;
26946;SDS011;14501;52.282;10.560;2023-02-17T16:11:12;9.52;;;5.78;;
26946;SDS011;14501;52.282;10.560;2023-02-17T16:13:39;7.25;;;5.38;;
26946;SDS011;14501;52.282;10.560;2023-02-17T16:16:08;8.13;;;4.85;;
26946;SDS011;14501;52.282;10.560;2023-02-17T16:18:44;6.40;;;4.78;;
26946;SDS011;14501;52.282;10.560;2023-02-17T16:21:10;7.72;;;4.70;;
26946;SDS011;14501;52.282;10.560;2023-02-17T16:23:38;8.02;;;4.88;;
26946;SDS011;14501;52.282;10.560;2023-02-17T16:26:04;5.90;;;4.20;;
26946;SDS011;14501;52.282;10.560;2023-02-17T16:28:38;6.45;;;4.47;;
26946;SDS011;14501;52.282;10.560;2023-02-17T16:31:03;7.18;;;4.95;;
26946;SDS011;14501;52.282;10.560;2023-02-17T16:33:29;5.65;;;4.03;;
26946;SDS011;14501;52.282;10.560;2023-02-17T16:35:55;8.23;;;5.28;;
26946;SDS011;14501;52.282;10.560;2023-02-17T16:38:21;7.93;;;5.00;;
26946;SDS011;14501;52.282;10.560;2023-02-17T16:40:49;7.15;;;4.80;;
26946;SDS011;14501;52.282;10.560;2023-02-17T16:43:18;8.15;;;4.93;;
26946;SDS011;14501;52.282;10.560;2023-02-17T16:46:03;6.45;;;4.28;;
26946;SDS011;14501;52.282;10.560;2023-02-17T16:48:30;6.13;;;4.18;;
26946;SDS011;14501;52.282;10.560;2023-02-17T16:50:59;8.70;;;4.82;;
26946;SDS011;14501;52.282;10.560;2023-02-17T16:53:25;7.35;;;4.22;;
26946;SDS011;14501;52.282;10.560;2023-02-17T16:55:52;7.45;;;4.65;;